Terminal Aerodrome Forecast
Issued by NWS Binghamton, NY

Home | Current Version | Previous Version | Text Only | Print | Product List | Glossary On
Versions: 1 2 3 4 5 6 7 8 9 10 11 12 13 14 15 16 17 18 19 20 21 22
000
FTUS41 KBGM 181100
TAFAVP
TAF
KAVP 181137Z 1812/1912 VRB04KT P6SM BKN070
     FM181500 32010KT P6SM BKN035
     FM190000 02005KT P6SM SCT080
     FM190600 10005KT P6SM SKC=

USA.gov is the U.S. government's official web portal to all federal, state and local government web resources and services.